Time;durP1;ratioP1;P1;durP2;ratioP2;P2;SDS_P1;SDS_P2;PMS_P1;PMS_P2;Temp;Humidity;BMP_temperature;BMP_pressure;BME280_temperature;BME280_humidity;BME280_pressure;Samples;Min_cycle;Max_cycle;Signal;HPM_P1;HPM_P2
2023/04/18 00:02:16;;;;;;;;;;;7.00;99.90;;;;;;5002161;28;20410;-70
2023/04/18 00:04:42;;;;;;;;;;;7.00;99.90;;;;;;5010841;28;19933;-70
2023/04/18 00:07:07;;;;;;;;;;;7.10;99.90;;;;;;5009456;28;20227;-70
2023/04/18 00:09:33;;;;;;;;;;;7.10;99.90;;;;;;4994064;28;20354;-70
2023/04/18 00:11:58;;;;;;;;;;;7.00;99.90;;;;;;5009070;28;20340;-70
2023/04/18 00:14:24;;;;;;;;;;;7.00;99.90;;;;;;5006488;28;19930;-70
2023/04/18 00:16:50;;;;;;;;;;;7.00;99.90;;;;;;5008755;28;19941;-70
2023/04/18 00:19:17;;;;;;;;;;;7.00;99.90;;;;;;5011953;28;19925;-70
2023/04/18 00:21:43;;;;;;;;;;;7.30;99.90;;;;;;5010236;28;19961;-69
2023/04/18 00:24:09;;;;;;;;;;;6.90;99.90;;;;;;5009133;28;19926;-69
2023/04/18 00:26:34;;;;;;;;;;;6.90;99.90;;;;;;5009928;28;19933;-70
2023/04/18 00:29:01;;;;;;;;;;;7.00;99.90;;;;;;5010924;28;20291;-70
2023/04/18 00:31:26;;;;;;;;;;;6.80;99.90;;;;;;5009551;28;19929;-69
2023/04/18 00:33:52;;;;;;;;;;;6.80;99.90;;;;;;5008665;28;20334;-69
2023/04/18 00:36:17;;;;;;;;;;;6.80;99.90;;;;;;5011338;28;19951;-69
2023/04/18 00:38:43;;;;;;;;;;;6.80;99.90;;;;;;5011853;28;19925;-70
2023/04/18 00:41:08;;;;;;;;;;;6.80;99.90;;;;;;5009214;28;20364;-70
2023/04/18 00:43:34;;;;;;;;;;;6.70;99.90;;;;;;5006887;28;19926;-69
2023/04/18 00:46:00;;;;;;;;;;;6.70;99.90;;;;;;5018436;28;20008;-70
2023/04/18 00:48:26;;;;;;;;;;;6.70;99.90;;;;;;5008550;28;19925;-69
2023/04/18 00:50:52;;;;;;;;;;;6.70;99.90;;;;;;5006560;28;20038;-69
2023/04/18 00:53:17;;;;;;;;;;;6.60;99.90;;;;;;5011675;28;20026;-69
2023/04/18 00:55:43;;;;;;;;;;;6.60;99.90;;;;;;5011136;28;19976;-69
2023/04/18 00:58:09;;;;;;;;;;;6.60;99.90;;;;;;5010235;28;20427;-69
2023/04/18 01:00:36;;;;;;;;;;;6.60;99.90;;;;;;5009501;28;20218;-69
2023/04/18 01:03:02;;;;;;;;;;;6.60;99.90;;;;;;5008085;28;20079;-69
2023/04/18 01:05:27;;;;;;;;;;;6.70;99.90;;;;;;5008360;28;20425;-69
2023/04/18 01:07:57;;;;;;;;;;;6.50;99.90;;;;;;5012071;28;19925;-70
2023/04/18 01:10:23;;;;;;;;;;;6.50;99.90;;;;;;5009122;28;19968;-69
2023/04/18 01:12:48;;;;;;;;;;;6.50;99.90;;;;;;5008434;28;19969;-69
2023/04/18 01:15:14;;;;;;;;;;;6.50;99.90;;;;;;5007894;28;19929;-69
2023/04/18 01:17:40;;;;;;;;;;;6.50;99.90;;;;;;5008102;28;19932;-69
2023/04/18 01:20:06;;;;;;;;;;;6.50;99.90;;;;;;5007261;28;20020;-69
2023/04/18 01:22:32;;;;;;;;;;;6.50;99.90;;;;;;5008651;28;20239;-69
2023/04/18 01:24:57;;;;;;;;;;;6.50;99.90;;;;;;5003880;28;20344;-70
2023/04/18 01:27:23;;;;;;;;;;;6.60;99.90;;;;;;5009147;28;19932;-69
2023/04/18 01:29:48;;;;;;;;;;;6.40;99.90;;;;;;5008709;28;19980;-69
2023/04/18 01:32:16;;;;;;;;;;;6.40;99.90;;;;;;5004844;28;20252;-69
2023/04/18 01:34:42;;;;;;;;;;;6.40;99.90;;;;;;5007840;28;19926;-70
2023/04/18 01:37:07;;;;;;;;;;;6.40;99.90;;;;;;5010301;28;19987;-70
2023/04/18 01:39:33;;;;;;;;;;;6.40;99.90;;;;;;4994212;28;19925;-70
2023/04/18 01:42:00;;;;;;;;;;;6.50;99.90;;;;;;5011529;28;19925;-70
2023/04/18 01:44:25;;;;;;;;;;;6.40;99.90;;;;;;5008032;28;20364;-70
2023/04/18 01:46:51;;;;;;;;;;;6.30;99.90;;;;;;5008836;28;20036;-69
2023/04/18 01:49:16;;;;;;;;;;;6.30;99.90;;;;;;5008614;28;19926;-70
2023/04/18 01:51:42;;;;;;;;;;;6.40;99.90;;;;;;5000216;28;19929;-70
2023/04/18 01:54:08;;;;;;;;;;;6.60;99.90;;;;;;5009522;28;20279;-70
2023/04/18 01:56:33;;;;;;;;;;;6.30;99.90;;;;;;5005873;28;19941;-70
2023/04/18 01:58:59;;;;;;;;;;;6.30;99.90;;;;;;5009711;28;19926;-69
2023/04/18 02:01:24;;;;;;;;;;;6.20;99.90;;;;;;5004120;28;20371;-69
2023/04/18 02:03:50;;;;;;;;;;;6.20;99.90;;;;;;5007729;28;20356;-70
2023/04/18 02:06:15;;;;;;;;;;;6.20;99.90;;;;;;5011613;28;20381;-70
2023/04/18 02:08:41;;;;;;;;;;;6.20;99.90;;;;;;5010658;28;20347;-70
2023/04/18 02:11:06;;;;;;;;;;;6.20;99.90;;;;;;5010463;28;19925;-70
2023/04/18 02:13:32;;;;;;;;;;;6.20;99.90;;;;;;5008736;28;20374;-70
2023/04/18 02:15:58;;;;;;;;;;;6.20;99.90;;;;;;5008999;28;20036;-70
2023/04/18 02:18:24;;;;;;;;;;;6.20;99.90;;;;;;5004663;28;20406;-70
2023/04/18 02:20:50;;;;;;;;;;;6.20;99.90;;;;;;4997238;28;19980;-70
2023/04/18 02:23:16;;;;;;;;;;;6.20;99.90;;;;;;5009433;28;19926;-70
2023/04/18 02:25:42;;;;;;;;;;;6.30;99.90;;;;;;5008115;28;19925;-69
2023/04/18 02:28:07;;;;;;;;;;;6.30;99.90;;;;;;5006409;28;19925;-70
2023/04/18 02:30:33;;;;;;;;;;;6.30;99.90;;;;;;5010853;28;20025;-70
2023/04/18 02:32:58;;;;;;;;;;;6.30;99.90;;;;;;5008053;28;20286;-70
2023/04/18 02:35:24;;;;;;;;;;;6.30;99.90;;;;;;5010632;28;19948;-70
2023/04/18 02:37:50;;;;;;;;;;;6.40;99.90;;;;;;5010444;28;20032;-69
2023/04/18 02:40:16;;;;;;;;;;;6.40;99.90;;;;;;5009012;28;20098;-70
2023/04/18 02:42:41;;;;;;;;;;;6.50;99.90;;;;;;5013438;28;19932;-70
2023/04/18 02:45:07;;;;;;;;;;;6.50;99.90;;;;;;5010706;28;19925;-70
2023/04/18 02:47:33;;;;;;;;;;;6.60;99.90;;;;;;5011697;28;19984;-70
2023/04/18 02:49:58;;;;;;;;;;;6.60;99.90;;;;;;5010182;28;19956;-70
2023/04/18 02:52:24;;;;;;;;;;;6.80;99.90;;;;;;5012948;28;19963;-69
2023/04/18 02:54:50;;;;;;;;;;;6.60;99.90;;;;;;5014693;28;19926;-69
2023/04/18 02:57:15;;;;;;;;;;;6.90;99.90;;;;;;5005710;28;19941;-69
2023/04/18 02:59:42;;;;;;;;;;;6.70;99.90;;;;;;5012427;28;19932;-69
2023/04/18 03:02:08;;;;;;;;;;;6.70;99.90;;;;;;5012536;28;19925;-69
2023/04/18 03:04:34;;;;;;;;;;;6.70;99.90;;;;;;5015417;28;20286;-69
2023/04/18 03:06:59;;;;;;;;;;;6.70;99.90;;;;;;5012941;28;19980;-69
2023/04/18 03:09:25;;;;;;;;;;;6.80;99.90;;;;;;5014134;28;20027;-69
2023/04/18 03:11:50;;;;;;;;;;;6.70;99.90;;;;;;5000193;28;19984;-69
2023/04/18 03:14:16;;;;;;;;;;;6.70;99.90;;;;;;5012421;28;20319;-69
2023/04/18 03:16:42;;;;;;;;;;;6.80;99.90;;;;;;5010909;28;19996;-69
2023/04/18 03:19:08;;;;;;;;;;;6.70;99.90;;;;;;5011120;28;20010;-69
2023/04/18 03:21:33;;;;;;;;;;;6.70;99.90;;;;;;5008653;28;20396;-70
2023/04/18 03:23:59;;;;;;;;;;;6.80;99.90;;;;;;4999849;28;19937;-70
2023/04/18 03:26:25;;;;;;;;;;;6.80;99.90;;;;;;5012986;28;19925;-70
2023/04/18 03:28:51;;;;;;;;;;;6.80;99.90;;;;;;5010501;28;19926;-69
2023/04/18 03:31:16;;;;;;;;;;;6.80;99.90;;;;;;5004954;28;19988;-70
2023/04/18 03:33:43;;;;;;;;;;;6.80;99.90;;;;;;5013080;28;20347;-70
2023/04/18 03:36:09;;;;;;;;;;;6.80;99.90;;;;;;5011234;28;19932;-70
2023/04/18 03:38:34;;;;;;;;;;;6.80;99.90;;;;;;5011496;28;19925;-69
2023/04/18 03:41:00;;;;;;;;;;;6.80;99.90;;;;;;5009171;28;19925;-69
2023/04/18 03:43:25;;;;;;;;;;;6.80;99.90;;;;;;5009440;28;20048;-70
2023/04/18 03:45:51;;;;;;;;;;;6.80;99.90;;;;;;5009452;28;19938;-69
2023/04/18 03:48:17;;;;;;;;;;;6.80;99.90;;;;;;5009811;28;20295;-69
2023/04/18 03:50:42;;;;;;;;;;;6.80;99.90;;;;;;5009389;28;19973;-70
2023/04/18 03:53:08;;;;;;;;;;;6.90;99.90;;;;;;5012360;28;19940;-70
2023/04/18 03:55:34;;;;;;;;;;;6.80;99.90;;;;;;5003393;28;20019;-70
2023/04/18 03:57:59;;;;;;;;;;;6.80;99.90;;;;;;5000927;28;19932;-69
2023/04/18 04:00:25;;;;;;;;;;;6.80;99.90;;;;;;5010589;28;19932;-70
2023/04/18 04:02:51;;;;;;;;;;;6.80;99.90;;;;;;5011186;28;20002;-70
2023/04/18 04:05:16;;;;;;;;;;;6.90;99.90;;;;;;5002841;28;19955;-70
2023/04/18 04:07:42;;;;;;;;;;;6.90;99.90;;;;;;5012167;28;19925;-70
2023/04/18 04:10:07;;;;;;;;;;;6.80;99.90;;;;;;5011160;28;19937;-69
2023/04/18 04:12:33;;;;;;;;;;;6.90;99.90;;;;;;5005444;28;19929;-70
2023/04/18 04:14:59;;;;;;;;;;;6.90;99.90;;;;;;5008416;28;19929;-70
2023/04/18 04:17:25;;;;;;;;;;;6.90;99.90;;;;;;5003357;28;19983;-70
2023/04/18 04:19:50;;;;;;;;;;;6.90;99.90;;;;;;5002852;28;19940;-70
2023/04/18 04:22:16;;;;;;;;;;;7.10;99.90;;;;;;5002353;28;19929;-70
2023/04/18 04:24:43;;;;;;;;;;;6.90;99.90;;;;;;5012722;28;19964;-70
2023/04/18 04:27:09;;;;;;;;;;;6.90;99.90;;;;;;5010123;28;19929;-70
2023/04/18 04:29:37;;;;;;;;;;;7.10;99.90;;;;;;5011887;28;20005;-70
2023/04/18 04:32:04;;;;;;;;;;;6.90;99.90;;;;;;5008375;28;21361;-70
2023/04/18 04:34:29;;;;;;;;;;;6.90;99.90;;;;;;5010431;28;19925;-70
2023/04/18 04:36:55;;;;;;;;;;;6.90;99.90;;;;;;5012127;28;20004;-70
2023/04/18 04:39:20;;;;;;;;;;;6.90;99.90;;;;;;5010257;28;20381;-69
2023/04/18 04:41:46;;;;;;;;;;;6.90;99.90;;;;;;5010691;28;20437;-70
2023/04/18 04:44:16;;;;;;;;;;;6.90;99.90;;;;;;5012259;28;19956;-70
2023/04/18 04:46:43;;;;;;;;;;;6.90;99.90;;;;;;5007772;28;20023;-71
2023/04/18 04:49:12;;;;;;;;;;;7.00;99.90;;;;;;5009433;28;19936;-71
2023/04/18 04:51:38;;;;;;;;;;;7.00;99.90;;;;;;4995461;28;19980;-71
2023/04/18 04:54:04;;;;;;;;;;;6.90;99.90;;;;;;5007812;28;19936;-70
2023/04/18 04:56:45;;;;;;;;;;;7.00;99.90;;;;;;5009445;28;19953;-70
2023/04/18 04:59:11;;;;;;;;;;;7.00;99.90;;;;;;5001500;28;19925;-70
2023/04/18 05:01:36;;;;;;;;;;;7.10;99.90;;;;;;5010132;28;19932;-70
2023/04/18 05:04:02;;;;;;;;;;;7.00;99.90;;;;;;5006515;28;19971;-70
2023/04/18 05:06:28;;;;;;;;;;;7.00;99.90;;;;;;5010326;28;19925;-70
2023/04/18 05:08:55;;;;;;;;;;;7.20;99.90;;;;;;5009144;28;19926;-70
2023/04/18 05:11:21;;;;;;;;;;;7.00;99.90;;;;;;5011326;28;19925;-70
2023/04/18 05:13:46;;;;;;;;;;;7.10;99.90;;;;;;5010792;28;20386;-69
2023/04/18 05:16:12;;;;;;;;;;;7.10;99.90;;;;;;5001655;28;21978;-70
2023/04/18 05:18:39;;;;;;;;;;;7.10;99.90;;;;;;5002783;28;19926;-70
2023/04/18 05:21:05;;;;;;;;;;;7.10;99.90;;;;;;5006183;28;20335;-69
2023/04/18 05:23:31;;;;;;;;;;;7.10;99.90;;;;;;5003953;28;19930;-69
2023/04/18 05:25:57;;;;;;;;;;;7.10;99.90;;;;;;5012743;28;20020;-69
2023/04/18 05:28:24;;;;;;;;;;;7.20;99.90;;;;;;5008527;28;20426;-71
2023/04/18 05:30:49;;;;;;;;;;;7.10;99.90;;;;;;5009087;28;19926;-70
2023/04/18 05:33:15;;;;;;;;;;;7.10;99.90;;;;;;5011736;28;20264;-70
2023/04/18 05:35:40;;;;;;;;;;;7.20;99.90;;;;;;5021350;28;20036;-70
2023/04/18 05:38:06;;;;;;;;;;;7.30;99.90;;;;;;5010176;28;20347;-70
2023/04/18 05:40:31;;;;;;;;;;;7.30;99.90;;;;;;5015124;28;19983;-70
2023/04/18 05:42:57;;;;;;;;;;;7.30;99.90;;;;;;4998745;28;20042;-70
2023/04/18 05:45:22;;;;;;;;;;;7.30;99.90;;;;;;5004834;28;19973;-70
2023/04/18 05:47:48;;;;;;;;;;;7.70;99.90;;;;;;5013661;28;20059;-71
2023/04/18 05:50:13;;;;;;;;;;;7.30;99.90;;;;;;5009555;28;19933;-70
2023/04/18 05:52:39;;;;;;;;;;;7.30;99.90;;;;;;5006697;28;19972;-71
2023/04/18 05:55:05;;;;;;;;;;;7.30;99.90;;;;;;5009440;28;20040;-70
2023/04/18 05:57:31;;;;;;;;;;;7.40;99.90;;;;;;5007475;28;20042;-68
2023/04/18 05:59:56;;;;;;;;;;;7.60;99.90;;;;;;5006696;28;19926;-68
2023/04/18 06:02:22;;;;;;;;;;;7.60;99.90;;;;;;5009854;28;19929;-68
2023/04/18 06:04:47;;;;;;;;;;;7.80;99.90;;;;;;5015671;28;19937;-68
2023/04/18 06:07:13;;;;;;;;;;;7.90;99.90;;;;;;5016309;28;19925;-69
2023/04/18 06:09:38;;;;;;;;;;;8.10;99.90;;;;;;5016592;28;20019;-69
2023/04/18 06:12:04;;;;;;;;;;;8.30;99.90;;;;;;5010121;28;19933;-68
2023/04/18 06:14:30;;;;;;;;;;;8.40;99.90;;;;;;5012137;28;19932;-69
2023/04/18 06:16:55;;;;;;;;;;;8.60;99.90;;;;;;5011208;28;19979;-69
2023/04/18 06:19:21;;;;;;;;;;;8.80;99.90;;;;;;5017963;28;19987;-69
2023/04/18 06:21:47;;;;;;;;;;;9.20;99.90;;;;;;5013917;28;19926;-69
2023/04/18 06:24:12;;;;;;;;;;;9.40;99.90;;;;;;5030286;28;19925;-67
2023/04/18 06:26:38;;;;;;;;;;;9.60;99.90;;;;;;5015443;28;19963;-69
2023/04/18 06:29:04;;;;;;;;;;;9.70;99.90;;;;;;5015696;28;19941;-70
2023/04/18 06:31:29;;;;;;;;;;;9.90;99.90;;;;;;5017383;28;20395;-69
2023/04/18 06:33:55;;;;;;;;;;;10.30;99.90;;;;;;5012463;28;19925;-69
2023/04/18 06:36:20;;;;;;;;;;;10.40;99.90;;;;;;5013125;28;20315;-69
2023/04/18 06:38:46;;;;;;;;;;;10.50;99.90;;;;;;5032794;28;20020;-69
2023/04/18 06:41:13;;;;;;;;;;;10.30;99.90;;;;;;5018100;28;19929;-69
2023/04/18 06:43:38;;;;;;;;;;;10.20;99.90;;;;;;5014791;28;20100;-69
2023/04/18 06:46:04;;;;;;;;;;;9.90;99.90;;;;;;5014602;28;19925;-70
2023/04/18 06:48:30;;;;;;;;;;;9.80;99.90;;;;;;5000774;28;19926;-69
2023/04/18 06:50:55;;;;;;;;;;;10.00;99.90;;;;;;5016733;28;20342;-68
2023/04/18 06:53:21;;;;;;;;;;;10.20;99.90;;;;;;5020602;28;19949;-69
2023/04/18 06:55:47;;;;;;;;;;;10.50;99.90;;;;;;5010282;28;19922;-69
2023/04/18 06:58:14;;;;;;;;;;;10.60;99.90;;;;;;5017159;28;19925;-69
2023/04/18 07:00:40;;;;;;;;;;;10.50;99.90;;;;;;5015891;28;20306;-69
2023/04/18 07:03:08;;;;;;;;;;;10.60;99.90;;;;;;5017033;28;19925;-68
2023/04/18 07:05:43;;;;;;;;;;;10.60;99.90;;;;;;5018209;28;19936;-68
2023/04/18 07:08:09;;;;;;;;;;;10.30;99.90;;;;;;5014843;28;19969;-68
2023/04/18 07:10:34;;;;;;;;;;;9.90;99.90;;;;;;5018183;28;20378;-68
2023/04/18 07:13:00;;;;;;;;;;;9.80;99.90;;;;;;5012599;28;19925;-69
2023/04/18 07:15:25;;;;;;;;;;;9.70;99.90;;;;;;5010956;28;19931;-69
2023/04/18 07:17:51;;;;;;;;;;;9.70;99.90;;;;;;5014680;28;20119;-69
2023/04/18 07:20:17;;;;;;;;;;;9.60;99.90;;;;;;5012780;28;19929;-68
2023/04/18 07:22:42;;;;;;;;;;;9.60;99.90;;;;;;5005801;28;20076;-69
2023/04/18 07:25:08;;;;;;;;;;;9.70;99.90;;;;;;5008726;28;19926;-68
2023/04/18 07:27:34;;;;;;;;;;;9.70;99.90;;;;;;5014965;28;20414;-68
2023/04/18 07:30:00;;;;;;;;;;;9.80;99.90;;;;;;5014050;28;19933;-70
2023/04/18 07:32:26;;;;;;;;;;;9.90;99.90;;;;;;5007396;28;19925;-69
2023/04/18 07:34:52;;;;;;;;;;;9.90;99.90;;;;;;5013656;28;20036;-69
2023/04/18 07:37:20;;;;;;;;;;;10.00;99.90;;;;;;5015217;28;20012;-69
2023/04/18 07:39:46;;;;;;;;;;;10.00;99.90;;;;;;5014129;28;19925;-69
2023/04/18 07:42:12;;;;;;;;;;;10.00;99.90;;;;;;5015440;28;19933;-69
2023/04/18 07:44:37;;;;;;;;;;;10.00;99.90;;;;;;5019062;28;20306;-69
2023/04/18 07:47:03;;;;;;;;;;;10.00;99.90;;;;;;5014269;28;19925;-69
2023/04/18 07:49:28;;;;;;;;;;;10.10;99.90;;;;;;5009160;28;20330;-70
2023/04/18 07:51:54;;;;;;;;;;;10.20;99.90;;;;;;5011614;28;19930;-69
2023/04/18 07:54:20;;;;;;;;;;;10.20;99.90;;;;;;5010627;28;20012;-69
2023/04/18 07:56:45;;;;;;;;;;;10.20;99.90;;;;;;5014335;28;19961;-69
2023/04/18 07:59:11;;;;;;;;;;;10.40;99.90;;;;;;5011609;28;19926;-68
2023/04/18 08:01:36;;;;;;;;;;;10.40;99.90;;;;;;5010233;28;19925;-68
2023/04/18 08:04:02;;;;;;;;;;;10.50;99.90;;;;;;5013507;28;20383;-69
2023/04/18 08:06:28;;;;;;;;;;;10.60;99.90;;;;;;5011934;28;19926;-69
2023/04/18 08:08:53;;;;;;;;;;;10.70;99.90;;;;;;5008866;28;19948;-69
2023/04/18 08:11:19;;;;;;;;;;;10.80;99.90;;;;;;5013554;28;20411;-69
2023/04/18 08:13:44;;;;;;;;;;;10.90;99.90;;;;;;5011218;28;19932;-69
2023/04/18 08:16:10;;;;;;;;;;;11.00;99.90;;;;;;5013709;28;20402;-69
2023/04/18 08:18:36;;;;;;;;;;;11.10;99.90;;;;;;5010342;28;20418;-68
2023/04/18 08:21:01;;;;;;;;;;;11.30;99.90;;;;;;5014998;28;19961;-68
2023/04/18 08:23:27;;;;;;;;;;;11.30;99.90;;;;;;5008837;28;20114;-69
2023/04/18 08:25:52;;;;;;;;;;;11.40;99.90;;;;;;5014362;28;19929;-69
2023/04/18 08:28:18;;;;;;;;;;;11.40;99.90;;;;;;5012518;28;19929;-69
2023/04/18 08:30:47;;;;;;;;;;;11.40;99.90;;;;;;5006522;28;20326;-69
2023/04/18 08:33:13;;;;;;;;;;;11.40;99.90;;;;;;5007929;28;20342;-69
2023/04/18 08:35:38;;;;;;;;;;;11.60;99.90;;;;;;5009885;28;19984;-68
2023/04/18 08:38:04;;;;;;;;;;;11.70;99.90;;;;;;5013598;28;19925;-68
2023/04/18 08:40:29;;;;;;;;;;;11.60;99.90;;;;;;5012546;28;19971;-69
2023/04/18 08:42:56;;;;;;;;;;;11.80;99.90;;;;;;5011257;28;19925;-69
2023/04/18 08:45:21;;;;;;;;;;;11.70;98.70;;;;;;5006538;28;19932;-68
2023/04/18 08:47:47;;;;;;;;;;;11.80;98.50;;;;;;5002929;28;19929;-68
2023/04/18 08:50:12;;;;;;;;;;;11.80;98.00;;;;;;5013267;28;19933;-69
2023/04/18 08:52:38;;;;;;;;;;;12.00;98.30;;;;;;5012482;28;19925;-69
2023/04/18 08:55:04;;;;;;;;;;;12.10;98.00;;;;;;5013750;28;19926;-69
2023/04/18 08:57:30;;;;;;;;;;;12.20;97.90;;;;;;5029447;28;19933;-69
2023/04/18 08:59:56;;;;;;;;;;;12.50;97.90;;;;;;5007835;28;19932;-69
2023/04/18 09:02:43;;;;;;;;;;;12.50;97.90;;;;;;5008806;28;19925;-69
2023/04/18 09:05:13;;;;;;;;;;;12.50;97.00;;;;;;5011904;28;20016;-69
2023/04/18 09:07:39;;;;;;;;;;;12.50;96.40;;;;;;5010019;28;19933;-68
2023/04/18 09:10:05;;;;;;;;;;;12.40;96.50;;;;;;4994241;28;19936;-68
2023/04/18 09:12:31;;;;;;;;;;;12.30;97.10;;;;;;5011453;28;19925;-69
2023/04/18 09:15:08;;;;;;;;;;;12.20;97.10;;;;;;5002239;28;21144;-69
2023/04/18 09:17:40;;;;;;;;;;;12.30;97.20;;;;;;5009799;28;19925;-68
2023/04/18 09:20:09;;;;;;;;;;;12.30;97.30;;;;;;5012561;28;19971;-68
2023/04/18 09:22:44;;;;;;;;;;;12.50;97.80;;;;;;4990034;28;20287;-68
2023/04/18 09:25:10;;;;;;;;;;;12.50;97.40;;;;;;5004532;28;19936;-69
2023/04/18 09:27:36;;;;;;;;;;;12.60;97.10;;;;;;5009430;28;19926;-69
2023/04/18 09:30:01;;;;;;;;;;;12.50;97.10;;;;;;5023819;28;19925;-68
2023/04/18 09:32:28;;;;;;;;;;;12.60;97.60;;;;;;5001326;28;19933;-68
2023/04/18 09:34:56;;;;;;;;;;;12.50;97.20;;;;;;5022323;28;20024;-69
2023/04/18 09:37:22;;;;;;;;;;;12.50;97.30;;;;;;5012716;28;19925;-68
2023/04/18 09:39:49;;;;;;;;;;;12.60;97.70;;;;;;5011113;28;19933;-69
2023/04/18 09:42:15;;;;;;;;;;;12.50;97.70;;;;;;5005232;28;19973;-68
2023/04/18 09:44:58;;;;;;;;;;;12.50;97.60;;;;;;5009862;28;19932;-68
2023/04/18 09:47:24;;;;;;;;;;;12.70;98.00;;;;;;5010129;28;19925;-69
2023/04/18 09:49:50;;;;;;;;;;;12.80;97.80;;;;;;5002918;28;20434;-68
2023/04/18 09:52:17;;;;;;;;;;;12.90;97.50;;;;;;5008466;28;20059;-69
2023/04/18 09:54:43;;;;;;;;;;;12.90;97.80;;;;;;5007192;28;19926;-69
2023/04/18 09:57:10;;;;;;;;;;;13.10;97.90;;;;;;5010579;28;19976;-69
2023/04/18 09:59:41;;;;;;;;;;;13.10;98.10;;;;;;5010638;28;19937;-69
2023/04/18 10:02:13;;;;;;;;;;;13.30;98.50;;;;;;5009502;28;19991;-69
2023/04/18 10:04:39;;;;;;;;;;;13.40;98.10;;;;;;5012724;28;20261;-69
2023/04/18 10:07:05;;;;;;;;;;;13.50;98.00;;;;;;5009951;28;19933;-69
2023/04/18 10:09:32;;;;;;;;;;;13.60;97.70;;;;;;5006052;28;19926;-69
2023/04/18 10:11:58;;;;;;;;;;;13.60;97.60;;;;;;5010396;28;19983;-69
2023/04/18 10:14:24;;;;;;;;;;;13.60;97.40;;;;;;5009920;28;20410;-68
2023/04/18 10:16:50;;;;;;;;;;;13.70;97.30;;;;;;5001866;28;19930;-69
2023/04/18 10:19:20;;;;;;;;;;;13.60;97.20;;;;;;5012214;28;20016;-69
2023/04/18 10:21:59;;;;;;;;;;;13.70;97.60;;;;;;5009433;28;20025;-69
2023/04/18 10:24:43;;;;;;;;;;;13.70;97.60;;;;;;5001179;28;19925;-69
2023/04/18 10:27:09;;;;;;;;;;;13.80;97.90;;;;;;5007545;28;19926;-69
2023/04/18 10:29:50;;;;;;;;;;;14.00;97.40;;;;;;5013165;28;19949;-69
2023/04/18 10:32:17;;;;;;;;;;;14.10;97.40;;;;;;5013119;28;19929;-68
2023/04/18 10:34:43;;;;;;;;;;;14.20;97.40;;;;;;4999286;28;19925;-69
2023/04/18 10:37:11;;;;;;;;;;;14.30;97.20;;;;;;5005659;28;19925;-69
2023/04/18 10:39:49;;;;;;;;;;;14.50;97.70;;;;;;5010122;28;19956;-68
2023/04/18 10:42:15;;;;;;;;;;;14.80;97.20;;;;;;5011434;28;20402;-69
2023/04/18 10:44:40;;;;;;;;;;;14.90;96.20;;;;;;5011242;28;19933;-69
2023/04/18 10:47:06;;;;;;;;;;;14.80;97.00;;;;;;5007810;28;19965;-69
2023/04/18 10:49:32;;;;;;;;;;;14.80;96.00;;;;;;5022747;28;19997;-68
2023/04/18 10:51:59;;;;;;;;;;;14.80;95.90;;;;;;5007226;28;19926;-69
2023/04/18 10:54:34;;;;;;;;;;;15.00;96.10;;;;;;5014970;28;19933;-68
2023/04/18 10:57:00;;;;;;;;;;;15.20;96.50;;;;;;5019939;28;20413;-69
2023/04/18 10:59:27;;;;;;;;;;;15.10;95.70;;;;;;5014066;28;19932;-69
2023/04/18 11:01:55;;;;;;;;;;;15.40;96.30;;;;;;5015451;28;19929;-69
2023/04/18 11:04:20;;;;;;;;;;;15.40;95.80;;;;;;5014712;28;20454;-69
2023/04/18 11:06:47;;;;;;;;;;;15.50;96.60;;;;;;5015106;28;20007;-69
2023/04/18 11:09:13;;;;;;;;;;;15.50;95.60;;;;;;5013833;28;19925;-69
2023/04/18 11:11:39;;;;;;;;;;;15.60;96.40;;;;;;4999671;28;19925;-69
2023/04/18 11:14:04;;;;;;;;;;;16.10;95.40;;;;;;5015486;28;20383;-68
2023/04/18 11:16:31;;;;;;;;;;;16.00;94.90;;;;;;5012258;28;20011;-69
2023/04/18 11:18:56;;;;;;;;;;;16.20;95.00;;;;;;5014719;28;19925;-69
2023/04/18 11:21:28;;;;;;;;;;;16.00;94.80;;;;;;5011648;28;20044;-69
2023/04/18 11:23:55;;;;;;;;;;;15.90;94.80;;;;;;5010474;28;19934;-68
2023/04/18 11:26:27;;;;;;;;;;;16.00;94.40;;;;;;5009535;28;19929;-69
2023/04/18 11:28:56;;;;;;;;;;;16.20;95.10;;;;;;5015548;28;19975;-69
2023/04/18 11:31:23;;;;;;;;;;;16.00;94.50;;;;;;5011762;28;19933;-70
2023/04/18 11:33:49;;;;;;;;;;;15.90;94.90;;;;;;5013285;28;19929;-69
2023/04/18 11:36:14;;;;;;;;;;;16.10;94.80;;;;;;5015455;28;19932;-69
2023/04/18 11:38:40;;;;;;;;;;;16.00;94.20;;;;;;5011476;28;20009;-68
2023/04/18 11:41:15;;;;;;;;;;;15.60;94.30;;;;;;5016932;28;20384;-69
2023/04/18 11:43:41;;;;;;;;;;;15.90;94.70;;;;;;5000751;28;19925;-69
2023/04/18 11:46:07;;;;;;;;;;;15.90;94.70;;;;;;5022617;28;20387;-69
2023/04/18 11:48:33;;;;;;;;;;;15.60;94.30;;;;;;4996973;28;19937;-69
2023/04/18 11:50:59;;;;;;;;;;;15.60;95.30;;;;;;5014983;28;19926;-68
2023/04/18 11:53:30;;;;;;;;;;;15.80;95.30;;;;;;5013591;28;20387;-69
2023/04/18 11:55:56;;;;;;;;;;;15.90;94.80;;;;;;5015025;28;19929;-68
2023/04/18 11:58:28;;;;;;;;;;;16.50;95.00;;;;;;5008821;28;19932;-68
2023/04/18 12:00:54;;;;;;;;;;;16.70;93.90;;;;;;5010626;28;19976;-68
2023/04/18 12:03:21;;;;;;;;;;;16.90;93.80;;;;;;5012937;28;20362;-69
2023/04/18 12:05:46;;;;;;;;;;;16.80;92.80;;;;;;5014048;28;19971;-69
2023/04/18 12:08:12;;;;;;;;;;;17.10;92.70;;;;;;5013193;28;19957;-69
2023/04/18 12:10:45;;;;;;;;;;;17.30;93.00;;;;;;4996789;28;19925;-69
2023/04/18 12:13:10;;;;;;;;;;;17.30;93.20;;;;;;4997020;28;19957;-69
2023/04/18 12:15:37;;;;;;;;;;;17.50;92.40;;;;;;5028538;28;19925;-69
2023/04/18 12:18:04;;;;;;;;;;;18.10;92.20;;;;;;5013261;28;19932;-68
2023/04/18 12:20:50;;;;;;;;;;;17.90;91.10;;;;;;5011479;28;20371;-69
2023/04/18 12:23:44;;;;;;;;;;;17.90;91.80;;;;;;5012511;28;19932;-69
2023/04/18 12:26:11;;;;;;;;;;;18.10;91.70;;;;;;5013574;28;20453;-68
2023/04/18 12:28:36;;;;;;;;;;;18.10;90.10;;;;;;4994626;28;19973;-68
2023/04/18 12:31:05;;;;;;;;;;;18.30;90.80;;;;;;5008401;28;20418;-68
2023/04/18 12:33:31;;;;;;;;;;;18.50;89.80;;;;;;5002685;28;19933;-69
2023/04/18 12:35:57;;;;;;;;;;;18.40;90.50;;;;;;5014228;28;20322;-69
2023/04/18 12:38:23;;;;;;;;;;;18.60;89.50;;;;;;4990751;28;19933;-68
2023/04/18 12:40:49;;;;;;;;;;;18.20;88.60;;;;;;5020413;28;19975;-68
2023/04/18 12:43:15;;;;;;;;;;;17.80;89.30;;;;;;5002977;28;20367;-68
2023/04/18 12:45:41;;;;;;;;;;;17.90;90.30;;;;;;5015724;28;19980;-68
2023/04/18 12:48:06;;;;;;;;;;;17.60;90.00;;;;;;5010802;28;20228;-68
2023/04/18 12:50:32;;;;;;;;;;;17.60;90.20;;;;;;4998998;28;20020;-68
2023/04/18 12:52:58;;;;;;;;;;;17.70;89.70;;;;;;5012100;28;20342;-68
2023/04/18 12:55:24;;;;;;;;;;;17.30;89.10;;;;;;5010926;28;20457;-68
2023/04/18 12:57:53;;;;;;;;;;;16.60;89.70;;;;;;5014987;28;20012;-68
2023/04/18 13:00:19;;;;;;;;;;;16.50;91.40;;;;;;4981742;28;20010;-68
2023/04/18 13:02:44;;;;;;;;;;;16.80;90.90;;;;;;5006918;28;20372;-68
2023/04/18 13:05:12;;;;;;;;;;;17.20;90.30;;;;;;5012114;28;19926;-68
2023/04/18 13:07:39;;;;;;;;;;;17.60;90.00;;;;;;5012950;28;20268;-68
2023/04/18 13:10:15;;;;;;;;;;;17.90;89.50;;;;;;4997409;28;19972;-68
2023/04/18 13:12:41;;;;;;;;;;;18.20;88.30;;;;;;5012630;28;20295;-68
2023/04/18 13:15:07;;;;;;;;;;;18.50;88.10;;;;;;5009572;28;19926;-68
2023/04/18 13:17:35;;;;;;;;;;;18.40;85.50;;;;;;5011222;28;20008;-68
2023/04/18 13:20:01;;;;;;;;;;;18.20;87.10;;;;;;5016039;28;20379;-68
2023/04/18 13:22:27;;;;;;;;;;;18.20;87.30;;;;;;5005922;28;19995;-68
2023/04/18 13:24:53;;;;;;;;;;;18.40;86.50;;;;;;5009101;28;20388;-68
2023/04/18 13:27:18;;;;;;;;;;;18.60;86.00;;;;;;5012188;28;20371;-68
2023/04/18 13:29:44;;;;;;;;;;;18.50;85.10;;;;;;5008237;28;19971;-68
2023/04/18 13:32:10;;;;;;;;;;;18.30;86.40;;;;;;5000367;28;19926;-68
2023/04/18 13:34:36;;;;;;;;;;;18.40;85.30;;;;;;5007695;28;19925;-68
2023/04/18 13:37:02;;;;;;;;;;;18.50;84.30;;;;;;4999800;28;19926;-68
2023/04/18 13:39:29;;;;;;;;;;;18.10;83.50;;;;;;5005471;28;19933;-68
2023/04/18 13:41:55;;;;;;;;;;;17.30;86.90;;;;;;5004355;28;20295;-68
2023/04/18 13:44:20;;;;;;;;;;;17.00;87.70;;;;;;5007041;28;19926;-68
2023/04/18 13:46:46;;;;;;;;;;;16.80;89.60;;;;;;5006924;28;20376;-68
2023/04/18 13:49:12;;;;;;;;;;;16.60;90.20;;;;;;5012964;28;19925;-68
2023/04/18 13:51:37;;;;;;;;;;;16.30;91.00;;;;;;5008358;28;19926;-68
2023/04/18 13:54:03;;;;;;;;;;;16.90;90.60;;;;;;5008851;28;20387;-68
2023/04/18 13:56:29;;;;;;;;;;;16.80;90.50;;;;;;5013169;28;20734;-68
2023/04/18 13:58:54;;;;;;;;;;;16.20;90.20;;;;;;5006813;28;19980;-68
2023/04/18 14:01:21;;;;;;;;;;;15.90;91.50;;;;;;5005238;28;19930;-69
2023/04/18 14:03:46;;;;;;;;;;;16.00;92.50;;;;;;5011816;28;19988;-68
2023/04/18 14:06:12;;;;;;;;;;;16.20;92.10;;;;;;5012237;28;20489;-68
2023/04/18 14:08:38;;;;;;;;;;;16.80;91.20;;;;;;5004259;28;19929;-69
2023/04/18 14:11:04;;;;;;;;;;;17.10;90.30;;;;;;5021027;28;20021;-69
2023/04/18 14:13:29;;;;;;;;;;;17.40;89.50;;;;;;5009366;28;20033;-68
2023/04/18 14:15:55;;;;;;;;;;;16.60;90.60;;;;;;5016436;28;19925;-68
2023/04/18 14:18:22;;;;;;;;;;;15.80;91.50;;;;;;5021607;28;19947;-68
2023/04/18 14:20:47;;;;;;;;;;;15.50;91.80;;;;;;5016805;28;19926;-68